createdAt,value
2018-09-05T00:02:11.211Z,20.23
2018-09-05T00:04:38.720Z,18.97
2018-09-05T00:07:06.272Z,18.47
2018-09-05T00:09:33.864Z,17.13
2018-09-05T00:12:01.414Z,19.03
2018-09-05T00:14:28.919Z,17.33
2018-09-05T00:16:56.489Z,15.90
2018-09-05T00:19:23.985Z,17.60
2018-09-05T00:21:51.492Z,16.30
2018-09-05T00:24:19.025Z,16.33
2018-09-05T00:26:46.544Z,18.47
2018-09-05T00:29:14.075Z,16.63
2018-09-05T00:31:41.610Z,18.30
2018-09-05T00:34:09.084Z,17.83
2018-09-05T00:36:36.610Z,18.97
2018-09-05T00:39:06.236Z,18.77
2018-09-05T00:41:33.740Z,21.87
2018-09-05T00:44:01.261Z,22.20
2018-09-05T00:46:28.753Z,20.47
2018-09-05T00:48:56.250Z,21.00
2018-09-05T00:51:23.754Z,18.67
2018-09-05T00:53:51.310Z,19.27
2018-09-05T00:56:18.820Z,17.53
2018-09-05T00:58:46.338Z,19.77
2018-09-05T01:01:13.876Z,17.53
2018-09-05T01:03:41.482Z,19.20
2018-09-05T01:06:08.944Z,18.67
2018-09-05T01:08:36.545Z,20.47
2018-09-05T01:11:04.176Z,19.10
2018-09-05T01:13:31.664Z,20.37
2018-09-05T01:15:59.140Z,17.20
2018-09-05T01:18:26.620Z,17.57
2018-09-05T01:20:54.194Z,17.20
2018-09-05T01:23:21.728Z,18.13
2018-09-05T01:25:49.212Z,17.60
2018-09-05T01:28:16.782Z,19.17
2018-09-05T01:30:44.309Z,18.50
2018-09-05T01:33:11.834Z,19.17
2018-09-05T01:35:39.309Z,18.33
2018-09-05T01:38:06.826Z,25.30
2018-09-05T01:40:34.404Z,18.80
2018-09-05T01:43:01.922Z,18.53
2018-09-05T01:45:29.443Z,21.00
2018-09-05T01:47:56.939Z,30.27
2018-09-05T01:50:29.992Z,30.70
2018-09-05T01:52:57.513Z,19.40
2018-09-05T01:55:25.100Z,18.07
2018-09-05T01:57:52.684Z,16.93
2018-09-05T02:00:25.878Z,18.27
2018-09-05T02:02:53.540Z,14.90
2018-09-05T02:05:21.017Z,17.27
2018-09-05T02:07:48.527Z,15.20
2018-09-05T02:10:16.051Z,20.00
2018-09-05T02:12:43.543Z,14.97
2018-09-05T02:15:11.079Z,19.60
2018-09-05T02:17:38.518Z,18.83
2018-09-05T02:20:06.064Z,23.27
2018-09-05T02:22:33.576Z,17.17
2018-09-05T02:25:01.108Z,21.03
2018-09-05T02:27:28.592Z,17.60
2018-09-05T02:29:56.153Z,19.50
2018-09-05T02:32:23.666Z,18.03
2018-09-05T02:34:51.184Z,32.03
2018-09-05T02:37:18.734Z,23.60
2018-09-05T02:39:46.281Z,18.97
2018-09-05T02:42:13.797Z,30.47
2018-09-05T02:44:41.360Z,30.93
2018-09-05T02:47:08.880Z,28.40
2018-09-05T02:49:36.393Z,20.17
2018-09-05T02:52:04.072Z,24.23
2018-09-05T02:54:31.618Z,21.27
2018-09-05T02:56:59.111Z,25.20
2018-09-05T02:59:26.623Z,19.60
2018-09-05T03:01:54.139Z,19.13
2018-09-05T03:04:21.698Z,28.37
2018-09-05T03:06:49.235Z,18.40
2018-09-05T03:09:16.726Z,18.87
2018-09-05T03:11:44.271Z,16.40
2018-09-05T03:14:11.798Z,17.77
2018-09-05T03:16:39.273Z,21.37
2018-09-05T03:19:06.830Z,14.80
2018-09-05T03:21:34.367Z,16.17
2018-09-05T03:24:01.868Z,15.50
2018-09-05T03:26:29.387Z,15.83
2018-09-05T03:28:56.901Z,17.77
2018-09-05T03:31:24.381Z,16.33
2018-09-05T03:33:51.885Z,16.53
2018-09-05T03:36:19.396Z,17.30
2018-09-05T03:38:46.869Z,18.97
2018-09-05T03:41:14.369Z,19.77
2018-09-05T03:43:41.865Z,21.93
2018-09-05T03:46:09.404Z,23.43
2018-09-05T03:48:36.901Z,19.60
2018-09-05T03:51:04.435Z,16.60
2018-09-05T03:53:32.000Z,15.67
2018-09-05T03:55:59.514Z,15.30
2018-09-05T03:58:27.253Z,16.90
2018-09-05T04:00:54.792Z,15.77
2018-09-05T04:03:22.341Z,17.50
2018-09-05T04:05:49.862Z,21.17
2018-09-05T04:08:17.401Z,20.20
2018-09-05T04:10:44.897Z,17.83
2018-09-05T04:13:12.421Z,20.07
2018-09-05T04:15:39.902Z,18.80
2018-09-05T04:18:07.387Z,27.63
2018-09-05T04:20:34.893Z,16.93
2018-09-05T04:23:02.427Z,19.93
2018-09-05T04:25:29.941Z,26.60
2018-09-05T04:27:57.434Z,25.53
2018-09-05T04:30:24.936Z,19.97
2018-09-05T04:32:52.480Z,22.87
2018-09-05T04:35:19.989Z,17.73
2018-09-05T04:37:47.539Z,18.67
2018-09-05T04:40:15.058Z,18.67
2018-09-05T04:42:42.668Z,23.77
2018-09-05T04:45:10.226Z,19.10
2018-09-05T04:47:37.694Z,18.50
2018-09-05T04:50:05.354Z,18.17
2018-09-05T04:52:32.922Z,25.03
2018-09-05T04:55:00.391Z,19.17
2018-09-05T04:57:28.176Z,25.80
2018-09-05T04:59:55.705Z,19.93
2018-09-05T05:02:23.314Z,19.30
2018-09-05T05:04:50.869Z,23.53
2018-09-05T05:07:18.372Z,34.37
2018-09-05T05:09:45.883Z,44.83
2018-09-05T05:12:13.389Z,32.13
2018-09-05T05:14:40.975Z,32.90
2018-09-05T05:17:08.486Z,28.93
2018-09-05T05:19:35.990Z,27.47
2018-09-05T05:22:03.526Z,33.70
2018-09-05T05:24:31.006Z,25.40
2018-09-05T05:26:58.532Z,28.90
2018-09-05T05:29:26.040Z,24.70
2018-09-05T05:31:53.552Z,29.83
2018-09-05T05:34:21.113Z,25.70
2018-09-05T05:36:48.636Z,25.80
2018-09-05T05:39:16.164Z,34.87
2018-09-05T05:41:43.651Z,25.50
2018-09-05T05:44:11.150Z,37.97
2018-09-05T05:46:38.729Z,44.63
2018-09-05T05:49:06.176Z,26.83
2018-09-05T05:51:33.677Z,30.13
2018-09-05T05:54:01.206Z,29.67
2018-09-05T05:56:28.790Z,34.30
2018-09-05T05:58:56.351Z,33.40
2018-09-05T06:01:23.871Z,40.00
2018-09-05T06:03:51.467Z,34.50
2018-09-05T06:06:19.032Z,31.70
2018-09-05T06:08:46.523Z,31.77
2018-09-05T06:11:14.042Z,31.90
2018-09-05T06:13:41.545Z,27.50
2018-09-05T06:16:09.054Z,31.57
2018-09-05T06:18:36.581Z,33.50
2018-09-05T06:21:04.193Z,28.07
2018-09-05T06:23:31.676Z,31.83
2018-09-05T06:25:59.178Z,30.10
2018-09-05T06:28:26.681Z,28.90
2018-09-05T06:30:54.221Z,30.57
2018-09-05T06:33:21.725Z,27.97
2018-09-05T06:35:49.237Z,33.10
2018-09-05T06:38:16.777Z,28.93
2018-09-05T06:40:44.328Z,32.37
2018-09-05T06:43:11.868Z,30.53
2018-09-05T06:45:39.385Z,27.80
2018-09-05T06:48:06.929Z,30.50
2018-09-05T06:50:34.477Z,31.50
2018-09-05T06:53:02.003Z,32.03
2018-09-05T06:55:29.563Z,30.70
2018-09-05T06:57:57.189Z,35.33
2018-09-05T07:00:24.789Z,34.00
2018-09-05T07:02:52.360Z,30.77
2018-09-05T07:05:20.132Z,35.00
2018-09-05T07:07:47.785Z,38.73
2018-09-05T07:10:15.311Z,35.03
2018-09-05T07:12:42.899Z,36.00
2018-09-05T07:15:10.441Z,34.50
2018-09-05T07:17:37.976Z,36.70
2018-09-05T07:20:05.505Z,34.13
2018-09-05T07:22:33.078Z,35.87
2018-09-05T07:25:00.694Z,38.00
2018-09-05T07:27:28.408Z,37.97
2018-09-05T07:29:55.875Z,38.33
2018-09-05T07:32:23.403Z,39.17
2018-09-05T07:34:50.921Z,40.37
2018-09-05T07:37:18.487Z,33.13
2018-09-05T07:39:46.102Z,34.20
2018-09-05T07:42:13.614Z,38.90
2018-09-05T07:44:41.167Z,37.90
2018-09-05T07:47:08.791Z,36.97
2018-09-05T07:49:36.324Z,38.93
2018-09-05T07:52:03.836Z,34.60
2018-09-05T07:54:31.426Z,39.07
2018-09-05T07:56:58.943Z,37.70
2018-09-05T07:59:26.553Z,35.17
2018-09-05T08:01:54.141Z,35.03
2018-09-05T08:04:21.775Z,35.50
2018-09-05T08:06:49.302Z,36.10
2018-09-05T08:09:16.855Z,39.73
2018-09-05T08:11:44.394Z,36.40
2018-09-05T08:14:11.969Z,35.87
2018-09-05T08:16:39.481Z,37.13
2018-09-05T08:19:07.093Z,40.07
2018-09-05T08:21:34.665Z,37.90
2018-09-05T08:24:02.424Z,38.80
2018-09-05T08:26:29.936Z,38.43
2018-09-05T08:28:57.584Z,36.20
2018-09-05T08:31:25.092Z,36.00
2018-09-05T08:33:52.661Z,36.20
2018-09-05T08:36:20.455Z,38.63
2018-09-05T08:38:47.862Z,35.63
2018-09-05T08:41:15.330Z,34.97
2018-09-05T08:43:43.005Z,30.20
2018-09-05T08:46:10.507Z,33.13
2018-09-05T08:48:38.113Z,31.57
2018-09-05T08:51:05.579Z,35.23
2018-09-05T08:53:33.143Z,36.93
2018-09-05T08:56:00.873Z,34.70
2018-09-05T08:58:28.382Z,34.47
2018-09-05T09:00:55.965Z,33.20
2018-09-05T09:03:23.530Z,35.10
2018-09-05T09:05:51.079Z,32.40
2018-09-05T09:08:18.680Z,32.83
2018-09-05T09:10:46.293Z,32.37
2018-09-05T09:13:13.823Z,32.40
2018-09-05T09:15:41.487Z,34.07
2018-09-05T09:18:09.116Z,32.50
2018-09-05T09:20:36.659Z,29.70
2018-09-05T09:23:04.216Z,28.87
2018-09-05T09:25:31.785Z,26.80
2018-09-05T09:27:59.526Z,28.60
2018-09-05T09:30:27.052Z,29.13
2018-09-05T09:32:54.600Z,28.23
2018-09-05T09:35:22.188Z,27.97
2018-09-05T09:37:49.669Z,25.60
2018-09-05T09:40:17.362Z,23.13
2018-09-05T09:42:44.896Z,22.57
2018-09-05T09:45:12.366Z,22.27
2018-09-05T09:47:39.928Z,19.70
2018-09-05T09:50:07.538Z,20.67
2018-09-05T09:52:38.267Z,19.07
2018-09-05T09:55:06.792Z,18.53
2018-09-05T09:57:34.386Z,18.53
2018-09-05T10:00:01.929Z,18.40
2018-09-05T10:02:35.008Z,20.07
2018-09-05T10:07:16.178Z,18.40
2018-09-05T10:09:49.379Z,25.53
2018-09-05T10:12:22.602Z,17.70
2018-09-05T10:15:53.140Z,22.60
2018-09-05T10:18:26.241Z,18.90
2018-09-05T10:20:54.028Z,17.63
2018-09-05T10:23:21.719Z,15.87
2018-09-05T10:25:49.254Z,17.90
2018-09-05T10:28:17.199Z,17.37
2018-09-05T10:30:45.021Z,23.47
2018-09-05T10:33:12.579Z,21.07
2018-09-05T10:35:40.121Z,19.67
2018-09-05T10:38:07.740Z,18.50
2018-09-05T10:40:35.299Z,19.70
2018-09-05T10:43:03.048Z,17.33
2018-09-05T10:45:30.533Z,17.80
2018-09-05T10:47:58.143Z,16.93
2018-09-05T10:50:25.657Z,16.80
2018-09-05T10:52:53.213Z,16.13
2018-09-05T10:55:20.739Z,17.23
2018-09-05T10:57:48.281Z,15.73
2018-09-05T11:00:15.924Z,16.70
2018-09-05T11:02:43.517Z,16.73
2018-09-05T11:05:11.129Z,14.80
2018-09-05T11:07:38.719Z,16.13
2018-09-05T11:10:06.256Z,16.33
2018-09-05T11:12:33.960Z,15.53
2018-09-05T11:15:01.502Z,16.30
2018-09-05T11:17:29.061Z,15.60
2018-09-05T11:19:56.571Z,14.73
2018-09-05T11:22:24.115Z,16.70
2018-09-05T11:24:51.666Z,15.50
2018-09-05T11:27:19.171Z,15.37
2018-09-05T11:29:46.693Z,15.20
2018-09-05T11:32:14.220Z,12.93
2018-09-05T11:34:41.779Z,14.57
2018-09-05T11:37:09.284Z,15.03
2018-09-05T11:39:36.870Z,14.33
2018-09-05T11:42:04.401Z,14.37
2018-09-05T11:44:31.928Z,14.30
2018-09-05T11:46:59.441Z,13.67
2018-09-05T11:49:26.975Z,13.57
2018-09-05T11:51:54.487Z,14.13
2018-09-05T11:54:22.095Z,14.53
2018-09-05T11:56:49.612Z,16.43
2018-09-05T11:59:17.151Z,14.00
2018-09-05T12:01:44.823Z,13.93
2018-09-05T12:04:12.358Z,12.73
2018-09-05T12:06:39.959Z,15.57
2018-09-05T12:09:09.149Z,15.70
2018-09-05T12:11:36.764Z,16.40
2018-09-05T12:14:04.275Z,15.23
2018-09-05T12:16:33.415Z,15.03
2018-09-05T12:19:00.975Z,13.60
2018-09-05T12:21:28.495Z,14.60
2018-09-05T12:23:56.082Z,16.90
2018-09-05T12:26:23.606Z,15.20
2018-09-05T12:28:51.161Z,15.67
2018-09-05T12:31:18.686Z,13.90
2018-09-05T12:33:46.221Z,14.20
2018-09-05T12:36:13.719Z,15.30
2018-09-05T12:38:41.268Z,15.97
2018-09-05T12:41:08.838Z,13.73
2018-09-05T12:43:36.357Z,15.43
2018-09-05T12:46:03.954Z,15.70
2018-09-05T12:48:31.477Z,15.27
2018-09-05T12:50:59.129Z,15.90
2018-09-05T12:53:26.669Z,14.60
2018-09-05T12:55:54.273Z,14.03
2018-09-05T12:58:21.818Z,13.70
2018-09-05T13:00:49.398Z,15.10
2018-09-05T13:03:17.127Z,15.57
2018-09-05T13:05:44.659Z,16.13
2018-09-05T13:08:12.213Z,12.93
2018-09-05T13:10:39.740Z,13.60
2018-09-05T13:13:07.291Z,14.57
2018-09-05T13:15:34.978Z,13.87
2018-09-05T13:18:09.068Z,14.30
2018-09-05T13:20:36.669Z,12.90
2018-09-05T13:23:04.206Z,14.30
2018-09-05T13:25:31.829Z,13.80
2018-09-05T13:27:59.449Z,15.27
2018-09-05T13:30:27.121Z,14.90
2018-09-05T13:32:54.743Z,16.77
2018-09-05T13:35:22.391Z,16.20
2018-09-05T13:37:50.079Z,15.10
2018-09-05T13:40:17.673Z,16.90
2018-09-05T13:42:45.245Z,15.00
2018-09-05T13:45:12.860Z,13.30
2018-09-05T13:47:40.401Z,14.80
2018-09-05T13:50:07.988Z,14.87
2018-09-05T13:52:35.571Z,16.60
2018-09-05T13:55:03.208Z,14.47
2018-09-05T13:57:30.782Z,17.63
2018-09-05T13:59:58.338Z,15.20
2018-09-05T14:02:25.935Z,15.50
2018-09-05T14:04:53.463Z,15.87
2018-09-05T14:07:21.000Z,15.23
2018-09-05T14:09:48.525Z,15.90
2018-09-05T14:12:16.040Z,16.53
2018-09-05T14:14:43.695Z,15.07
2018-09-05T14:17:11.426Z,15.00
2018-09-05T14:19:38.975Z,14.10
2018-09-05T14:22:06.502Z,16.57
2018-09-05T14:24:34.223Z,14.70
2018-09-05T14:27:01.787Z,15.57
2018-09-05T14:29:29.317Z,15.33
2018-09-05T14:31:56.849Z,14.30
2018-09-05T14:34:24.422Z,15.53
2018-09-05T14:36:52.054Z,15.40
2018-09-05T14:39:19.667Z,14.40
2018-09-05T14:41:47.216Z,14.83
2018-09-05T14:44:14.740Z,15.97
2018-09-05T14:46:42.255Z,13.47
2018-09-05T14:49:09.808Z,15.37
2018-09-05T14:51:37.395Z,15.67
2018-09-05T14:54:04.962Z,16.80
2018-09-05T14:56:32.461Z,17.30
2018-09-05T14:59:00.043Z,16.80
2018-09-05T15:01:27.563Z,16.60
2018-09-05T15:03:55.137Z,15.70
2018-09-05T15:06:22.730Z,15.40
2018-09-05T15:08:50.249Z,14.33
2018-09-05T15:11:17.983Z,14.00
2018-09-05T15:13:45.548Z,14.87
2018-09-05T15:16:13.119Z,14.33
2018-09-05T15:18:40.694Z,14.30
2018-09-05T15:21:08.573Z,14.00
2018-09-05T15:23:36.099Z,15.83
2018-09-05T15:26:03.713Z,15.70
2018-09-05T15:28:31.265Z,15.77
2018-09-05T15:30:58.857Z,17.13
2018-09-05T15:33:26.409Z,16.60
2018-09-05T15:35:53.944Z,18.67
2018-09-05T15:38:21.575Z,16.00
2018-09-05T15:40:49.191Z,15.97
2018-09-05T15:43:16.719Z,18.03
2018-09-05T15:45:44.339Z,16.43
2018-09-05T15:48:11.999Z,16.43
2018-09-05T15:50:39.575Z,15.67
2018-09-05T15:53:07.167Z,17.03
2018-09-05T15:55:34.754Z,15.07
2018-09-05T15:58:02.276Z,16.30
2018-09-05T16:00:29.830Z,16.83
2018-09-05T16:02:57.394Z,18.37
2018-09-05T16:05:25.577Z,17.33
2018-09-05T16:07:53.147Z,17.57
2018-09-05T16:10:20.717Z,17.23
2018-09-05T16:12:48.231Z,16.90
2018-09-05T16:15:15.812Z,17.57
2018-09-05T16:17:43.357Z,17.40
2018-09-05T16:20:10.872Z,18.00
2018-09-05T16:22:38.404Z,17.40
2018-09-05T16:25:06.017Z,16.80
2018-09-05T16:27:33.596Z,18.83
2018-09-05T16:30:01.112Z,17.30
2018-09-05T16:32:28.702Z,18.27
2018-09-05T16:34:56.263Z,16.80
2018-09-05T16:37:23.875Z,17.80
2018-09-05T16:39:51.451Z,18.63
2018-09-05T16:42:18.977Z,17.40
2018-09-05T16:44:46.606Z,17.27
2018-09-05T16:47:14.206Z,17.17
2018-09-05T16:49:41.725Z,17.70
2018-09-05T16:52:09.285Z,18.77
2018-09-05T16:54:36.848Z,16.83
2018-09-05T16:57:04.430Z,17.57
2018-09-05T16:59:31.962Z,18.77
2018-09-05T17:01:59.628Z,18.20
2018-09-05T17:04:27.164Z,16.97
2018-09-05T17:06:54.763Z,18.43
2018-09-05T17:09:22.315Z,17.27
2018-09-05T17:11:49.892Z,17.53
2018-09-05T17:14:17.436Z,17.10
2018-09-05T17:16:45.021Z,17.50
2018-09-05T17:19:12.588Z,16.83
2018-09-05T17:21:40.154Z,16.23
2018-09-05T17:24:07.752Z,16.30
2018-09-05T17:26:35.312Z,16.73
2018-09-05T17:29:02.896Z,18.10
2018-09-05T17:31:30.388Z,17.47
2018-09-05T17:33:57.926Z,18.80
2018-09-05T17:36:25.441Z,18.77
2018-09-05T17:38:53.046Z,18.53
2018-09-05T17:41:20.652Z,18.53
2018-09-05T17:43:48.174Z,19.00
2018-09-05T17:46:15.758Z,18.80
2018-09-05T17:48:43.316Z,19.70
2018-09-05T17:51:10.992Z,18.60
2018-09-05T17:53:38.722Z,21.50
2018-09-05T17:56:06.435Z,17.87
2018-09-05T17:58:34.112Z,18.80
2018-09-05T18:01:03.600Z,17.97
2018-09-05T18:03:31.197Z,19.60
2018-09-05T18:05:59.674Z,18.93
2018-09-05T18:08:27.241Z,17.63
2018-09-05T18:10:54.827Z,18.27
2018-09-05T18:13:22.389Z,20.20
2018-09-05T18:15:49.985Z,19.67
2018-09-05T18:18:17.578Z,20.47
2018-09-05T18:20:45.156Z,20.40
2018-09-05T18:23:14.149Z,21.93
2018-09-05T18:25:41.937Z,20.60
2018-09-05T18:28:09.654Z,22.73
2018-09-05T18:30:37.252Z,22.43
2018-09-05T18:33:05.036Z,21.40
2018-09-05T18:35:32.711Z,19.33
2018-09-05T18:38:00.253Z,22.70
2018-09-05T18:40:27.894Z,24.60
2018-09-05T18:42:55.445Z,21.87
2018-09-05T18:45:23.136Z,23.77
2018-09-05T18:47:50.795Z,21.90
2018-09-05T18:50:18.534Z,22.40
2018-09-05T18:52:46.236Z,22.40
2018-09-05T18:55:13.867Z,24.30
2018-09-05T18:57:41.590Z,23.77
2018-09-05T19:00:09.405Z,22.43
2018-09-05T19:02:37.065Z,22.17
2018-09-05T19:05:04.924Z,23.43
2018-09-05T19:07:32.572Z,23.00
2018-09-05T19:10:00.208Z,21.83
2018-09-05T19:12:27.899Z,22.90
2018-09-05T19:14:55.842Z,24.07
2018-09-05T19:17:23.549Z,23.83
2018-09-05T19:19:51.269Z,25.20
2018-09-05T19:22:18.889Z,23.80
2018-09-05T19:24:46.533Z,25.13
2018-09-05T19:27:14.165Z,24.27
2018-09-05T19:29:41.801Z,23.87
2018-09-05T19:32:09.461Z,24.57
2018-09-05T19:34:37.163Z,23.00
2018-09-05T19:37:04.944Z,25.13
2018-09-05T19:39:32.712Z,27.10
2018-09-05T19:42:00.307Z,24.70
2018-09-05T19:44:27.933Z,24.33
2018-09-05T19:46:55.619Z,25.40
2018-09-05T19:49:23.286Z,23.87
2018-09-05T19:51:50.995Z,27.40
2018-09-05T19:54:18.683Z,27.23
2018-09-05T19:56:46.390Z,29.13
2018-09-05T19:59:14.153Z,27.63
2018-09-05T20:01:41.732Z,28.23
2018-09-05T20:04:09.408Z,26.10
2018-09-05T20:06:37.103Z,26.53
2018-09-05T20:09:06.508Z,27.60
2018-09-05T20:11:34.147Z,28.10
2018-09-05T20:14:01.863Z,28.77
2018-09-05T20:16:29.524Z,28.03
2018-09-05T20:18:57.181Z,29.00
2018-09-05T20:21:24.776Z,26.97
2018-09-05T20:23:52.599Z,29.10
2018-09-05T20:26:20.170Z,28.90
2018-09-05T20:28:47.817Z,29.37
2018-09-05T20:31:15.537Z,29.53
2018-09-05T20:33:43.213Z,30.70
2018-09-05T20:36:10.792Z,28.60
2018-09-05T20:38:38.355Z,29.23
2018-09-05T20:41:05.960Z,28.10
2018-09-05T20:43:33.553Z,27.47
2018-09-05T20:46:01.101Z,29.23
2018-09-05T20:48:28.786Z,28.87
2018-09-05T20:50:56.390Z,29.40
2018-09-05T20:53:24.161Z,28.63
2018-09-05T20:55:51.738Z,27.63
2018-09-05T20:58:19.372Z,28.37
2018-09-05T21:00:46.904Z,29.30
2018-09-05T21:03:14.654Z,27.10
2018-09-05T21:05:42.287Z,28.90
2018-09-05T21:08:10.224Z,30.20
2018-09-05T21:10:38.020Z,29.50
2018-09-05T21:13:05.948Z,27.60
2018-09-05T21:15:33.609Z,27.97
2018-09-05T21:18:01.440Z,29.13
2018-09-05T21:20:29.085Z,25.33
2018-09-05T21:22:56.784Z,28.43
2018-09-05T21:25:24.477Z,29.63
2018-09-05T21:27:52.109Z,28.60
2018-09-05T21:30:19.830Z,29.43
2018-09-05T21:32:47.685Z,30.27
2018-09-05T21:35:15.380Z,30.53
2018-09-05T21:37:43.017Z,30.93
2018-09-05T21:40:10.765Z,31.07
2018-09-05T21:42:38.342Z,30.33
2018-09-05T21:45:06.244Z,29.07
2018-09-05T21:47:33.827Z,29.77
2018-09-05T21:50:01.424Z,29.30
2018-09-05T21:52:29.016Z,28.00
2018-09-05T21:54:56.631Z,28.83
2018-09-05T21:57:24.321Z,28.87
2018-09-05T21:59:52.006Z,28.57
2018-09-05T22:02:19.603Z,29.00
2018-09-05T22:04:47.256Z,27.70
2018-09-05T22:07:14.871Z,27.60
2018-09-05T22:09:42.481Z,28.27
2018-09-05T22:12:10.078Z,30.73
2018-09-05T22:14:37.734Z,31.17
2018-09-05T22:17:05.530Z,30.97
2018-09-05T22:19:33.127Z,30.40
2018-09-05T22:22:00.791Z,30.40
2018-09-05T22:24:28.440Z,32.57
2018-09-05T22:26:56.062Z,31.30
2018-09-05T22:29:23.635Z,35.03
2018-09-05T22:31:51.328Z,33.93
2018-09-05T22:34:18.936Z,32.87
2018-09-05T22:36:46.568Z,36.00
2018-09-05T22:39:14.191Z,31.03
2018-09-05T22:41:41.845Z,32.40
2018-09-05T22:44:20.867Z,32.73
2018-09-05T22:46:59.929Z,31.37
2018-09-05T22:52:06.094Z,34.50
2018-09-05T22:56:53.625Z,30.30
2018-09-05T22:59:34.311Z,33.60
2018-09-05T23:02:15.006Z,35.33
2018-09-05T23:05:54.964Z,36.17
2018-09-05T23:08:36.158Z,32.93
2018-09-05T23:11:15.183Z,34.53
2018-09-05T23:13:55.060Z,33.87
2018-09-05T23:16:34.090Z,32.97
2018-09-05T23:19:20.695Z,34.30
2018-09-05T23:21:48.343Z,33.27
2018-09-05T23:24:15.932Z,34.17
2018-09-05T23:26:43.689Z,31.50
2018-09-05T23:29:11.369Z,31.73
2018-09-05T23:31:39.017Z,34.27
2018-09-05T23:34:06.680Z,30.63
2018-09-05T23:36:34.273Z,31.83
2018-09-05T23:39:01.945Z,33.00
2018-09-05T23:41:29.567Z,32.20
2018-09-05T23:43:57.187Z,34.10
2018-09-05T23:46:24.758Z,31.90
2018-09-05T23:48:52.348Z,33.40
2018-09-05T23:51:20.026Z,33.17
2018-09-05T23:53:47.612Z,29.20
2018-09-05T23:56:15.245Z,32.83
2018-09-05T23:58:42.860Z,33.67
